Time;durP1;ratioP1;P1;durP2;ratioP2;P2;SDS_P1;SDS_P2;PMS_P1;PMS_P2;Temp;Humidity;BMP_temperature;BMP_pressure;BME280_temperature;BME280_humidity;BME280_pressure;Samples;Min_cycle;Max_cycle;Signal;HPM_P1;HPM_P2
2022/03/16 00:01:58;;;;;;;39.50;22.17;;;;;;;;;;5050610;28;20041;-68
2022/03/16 00:04:24;;;;;;;44.15;23.60;;;;;;;;;;5068490;28;20139;-68
2022/03/16 00:06:50;;;;;;;35.45;21.50;;;;;;;;;;5067816;28;20086;-68
2022/03/16 00:09:16;;;;;;;36.60;21.40;;;;;;;;;;5068186;28;20033;-69
2022/03/16 00:11:43;;;;;;;38.20;22.45;;;;;;;;;;5067496;28;20037;-68
2022/03/16 00:14:09;;;;;;;35.90;21.60;;;;;;;;;;5067035;28;20043;-68
2022/03/16 00:16:35;;;;;;;38.33;21.85;;;;;;;;;;5068421;28;20072;-69
2022/03/16 00:19:01;;;;;;;38.22;23.17;;;;;;;;;;5050521;28;20044;-68
2022/03/16 00:21:27;;;;;;;34.88;22.35;;;;;;;;;;5050275;28;20127;-68
2022/03/16 00:23:54;;;;;;;33.90;22.30;;;;;;;;;;5050439;28;20481;-68
2022/03/16 00:26:20;;;;;;;33.53;22.02;;;;;;;;;;5049066;28;20048;-68
2022/03/16 00:28:46;;;;;;;39.17;23.15;;;;;;;;;;5049713;28;20032;-68
2022/03/16 00:31:12;;;;;;;36.95;23.25;;;;;;;;;;5049180;28;20067;-68
2022/03/16 00:33:39;;;;;;;43.90;24.92;;;;;;;;;;5035725;28;20044;-68
2022/03/16 00:36:05;;;;;;;48.72;26.70;;;;;;;;;;5053549;28;20045;-68
2022/03/16 00:38:31;;;;;;;42.05;24.58;;;;;;;;;;5054024;28;20047;-68
2022/03/16 00:40:57;;;;;;;39.72;23.55;;;;;;;;;;5054099;28;20493;-68
2022/03/16 00:43:23;;;;;;;44.78;24.10;;;;;;;;;;5053133;28;20052;-68
2022/03/16 00:45:49;;;;;;;42.22;25.13;;;;;;;;;;5071269;28;20080;-68
2022/03/16 00:48:15;;;;;;;47.72;25.58;;;;;;;;;;5053876;28;20521;-68
2022/03/16 00:50:41;;;;;;;44.70;25.42;;;;;;;;;;5068878;28;20059;-68
2022/03/16 00:53:07;;;;;;;45.15;24.45;;;;;;;;;;5071544;28;20036;-68
2022/03/16 00:55:33;;;;;;;39.47;23.98;;;;;;;;;;5052390;28;20032;-68
2022/03/16 00:58:01;;;;;;;37.40;24.50;;;;;;;;;;5070427;28;20101;-68
2022/03/16 01:00:27;;;;;;;47.25;24.33;;;;;;;;;;5070529;28;20412;-68
2022/03/16 01:02:53;;;;;;;37.25;23.67;;;;;;;;;;5053576;28;20387;-67
2022/03/16 01:05:20;;;;;;;37.30;22.60;;;;;;;;;;5069582;28;20040;-68
2022/03/16 01:07:46;;;;;;;38.53;23.67;;;;;;;;;;5052763;28;20040;-68
2022/03/16 01:10:12;;;;;;;33.15;21.30;;;;;;;;;;5052221;28;20048;-68
2022/03/16 01:12:38;;;;;;;33.88;21.60;;;;;;;;;;5052996;28;20048;-68
2022/03/16 01:15:05;;;;;;;42.03;25.65;;;;;;;;;;5051805;28;20037;-68
2022/03/16 01:17:31;;;;;;;45.22;26.02;;;;;;;;;;5070893;28;20033;-67
2022/03/16 01:19:57;;;;;;;47.70;27.88;;;;;;;;;;5053227;28;20144;-68
2022/03/16 01:22:23;;;;;;;46.05;24.42;;;;;;;;;;5053537;28;20044;-68
2022/03/16 01:24:49;;;;;;;45.00;25.38;;;;;;;;;;5052498;28;20194;-68
2022/03/16 01:27:15;;;;;;;36.78;23.95;;;;;;;;;;5052662;28;20385;-68
2022/03/16 01:29:41;;;;;;;41.58;25.40;;;;;;;;;;5069725;28;20028;-68
2022/03/16 01:32:08;;;;;;;43.30;25.60;;;;;;;;;;5070045;28;20040;-67
2022/03/16 01:34:35;;;;;;;42.55;24.48;;;;;;;;;;5069844;28;20056;-69
2022/03/16 01:37:02;;;;;;;45.00;25.45;;;;;;;;;;5018930;28;20066;-69
2022/03/16 01:39:28;;;;;;;39.70;24.25;;;;;;;;;;5052250;28;20063;-69
2022/03/16 01:41:54;;;;;;;39.38;23.73;;;;;;;;;;5052234;28;20048;-69
2022/03/16 01:44:41;;;;;;;49.17;25.23;;;;;;;;;;5052256;28;20132;-69
2022/03/16 01:47:07;;;;;;;;;;;;;;;;;;5052525;28;20040;-69
2022/03/16 01:49:33;;;;;;;40.45;23.25;;;;;;;;;;5052538;28;21497;-69
2022/03/16 01:51:59;;;;;;;38.55;23.15;;;;;;;;;;5069090;28;20513;-67
2022/03/16 01:54:25;;;;;;;46.90;26.35;;;;;;;;;;5069020;28;20051;-67
2022/03/16 01:56:52;;;;;;;42.05;24.65;;;;;;;;;;5050555;28;20052;-67
2022/03/16 01:59:18;;;;;;;33.90;22.73;;;;;;;;;;5051470;28;20044;-67
2022/03/16 02:01:44;;;;;;;38.92;24.40;;;;;;;;;;5051120;28;20152;-67
2022/03/16 02:04:10;;;;;;;41.13;24.85;;;;;;;;;;5050286;28;20040;-67
2022/03/16 02:06:36;;;;;;;43.25;24.85;;;;;;;;;;5067606;28;20041;-67
2022/03/16 02:09:02;;;;;;;37.88;24.10;;;;;;;;;;5050055;28;20041;-67
2022/03/16 02:11:28;;;;;;;36.90;22.85;;;;;;;;;;5067698;28;20079;-67
2022/03/16 02:13:54;;;;;;;40.38;23.30;;;;;;;;;;5050053;28;20056;-67
2022/03/16 02:16:20;;;;;;;40.75;23.38;;;;;;;;;;5050333;28;20051;-67
2022/03/16 02:18:46;;;;;;;38.42;23.58;;;;;;;;;;5050480;28;20135;-67
2022/03/16 02:21:13;;;;;;;37.90;22.67;;;;;;;;;;5051166;28;20105;-67
2022/03/16 02:23:39;;;;;;;36.25;22.75;;;;;;;;;;5050982;28;20056;-67
2022/03/16 02:26:06;;;;;;;37.30;22.50;;;;;;;;;;5067542;28;20043;-68
2022/03/16 02:28:32;;;;;;;43.30;25.05;;;;;;;;;;5049061;28;20086;-67
2022/03/16 02:30:59;;;;;;;38.00;23.38;;;;;;;;;;5034189;28;20095;-67
2022/03/16 02:33:25;;;;;;;35.70;22.83;;;;;;;;;;5050994;28;20445;-67
2022/03/16 02:35:51;;;;;;;36.92;22.33;;;;;;;;;;5067051;28;21701;-67
2022/03/16 02:38:18;;;;;;;38.65;23.13;;;;;;;;;;5050178;28;20051;-67
2022/03/16 02:40:44;;;;;;;37.58;23.40;;;;;;;;;;5050597;28;20033;-67
2022/03/16 02:43:10;;;;;;;39.05;21.83;;;;;;;;;;5050043;28;20067;-67
2022/03/16 02:45:36;;;;;;;34.15;21.17;;;;;;;;;;5067515;28;20076;-67
2022/03/16 02:48:02;;;;;;;27.00;17.77;;;;;;;;;;5033843;28;20052;-68
2022/03/16 02:50:28;;;;;;;26.38;18.13;;;;;;;;;;5067978;28;20033;-67
2022/03/16 02:52:55;;;;;;;32.03;19.05;;;;;;;;;;5050552;28;20043;-68
2022/03/16 02:55:21;;;;;;;40.50;20.27;;;;;;;;;;5049859;28;20044;-68
2022/03/16 02:57:47;;;;;;;28.13;18.80;;;;;;;;;;5050127;28;20044;-68
2022/03/16 03:00:14;;;;;;;28.02;19.48;;;;;;;;;;5049819;28;20063;-68
2022/03/16 03:02:41;;;;;;;27.38;18.25;;;;;;;;;;5066249;28;20448;-67
2022/03/16 03:05:07;;;;;;;24.75;17.83;;;;;;;;;;5067617;28;20040;-67
2022/03/16 03:07:33;;;;;;;28.83;17.63;;;;;;;;;;5066764;28;20093;-67
2022/03/16 03:10:00;;;;;;;28.95;18.52;;;;;;;;;;5067736;28;20033;-68
2022/03/16 03:12:26;;;;;;;24.02;16.88;;;;;;;;;;5067818;28;20124;-67
2022/03/16 03:14:52;;;;;;;26.48;17.50;;;;;;;;;;5066909;28;20080;-67
2022/03/16 03:17:18;;;;;;;27.88;19.00;;;;;;;;;;5049343;28;20044;-68
2022/03/16 03:19:44;;;;;;;31.92;19.00;;;;;;;;;;5048692;28;20077;-67
2022/03/16 03:22:10;;;;;;;24.92;17.10;;;;;;;;;;5067383;28;20090;-67
2022/03/16 03:24:36;;;;;;;28.42;18.80;;;;;;;;;;5032737;28;20128;-68
2022/03/16 03:27:02;;;;;;;27.15;17.65;;;;;;;;;;5068018;28;20072;-68
2022/03/16 03:29:28;;;;;;;25.67;17.33;;;;;;;;;;5048115;28;20043;-68
2022/03/16 03:31:54;;;;;;;23.77;17.50;;;;;;;;;;5048230;28;20037;-67
2022/03/16 03:34:20;;;;;;;24.88;17.88;;;;;;;;;;5068217;28;20036;-67
2022/03/16 03:36:46;;;;;;;26.50;18.17;;;;;;;;;;5049353;28;20566;-68
2022/03/16 03:39:12;;;;;;;44.85;19.73;;;;;;;;;;5049614;28;20075;-67
2022/03/16 03:41:38;;;;;;;43.03;22.73;;;;;;;;;;5048725;28;20041;-67
2022/03/16 03:44:05;;;;;;;78.18;22.02;;;;;;;;;;5048518;28;20095;-67
2022/03/16 03:46:31;;;;;;;74.38;25.30;;;;;;;;;;5048445;28;20072;-68
2022/03/16 03:48:57;;;;;;;97.10;23.52;;;;;;;;;;5067383;28;20124;-68
2022/03/16 03:51:23;;;;;;;56.33;23.80;;;;;;;;;;5067099;28;20076;-68
2022/03/16 03:53:49;;;;;;;44.40;21.25;;;;;;;;;;5050939;28;20071;-68
2022/03/16 03:56:15;;;;;;;37.30;20.75;;;;;;;;;;5034051;28;20044;-68
2022/03/16 03:58:41;;;;;;;32.60;19.63;;;;;;;;;;5050206;28;20048;-68
2022/03/16 04:01:07;;;;;;;41.42;17.48;;;;;;;;;;5050651;28;20048;-68
2022/03/16 04:03:34;;;;;;;28.95;19.27;;;;;;;;;;5050355;28;20119;-68
2022/03/16 04:06:00;;;;;;;34.05;19.02;;;;;;;;;;5050543;28;20359;-68
2022/03/16 04:08:26;;;;;;;35.80;17.90;;;;;;;;;;5072016;28;21789;-68
2022/03/16 04:10:52;;;;;;;25.50;16.90;;;;;;;;;;5071415;28;20036;-68
2022/03/16 04:13:18;;;;;;;27.17;17.80;;;;;;;;;;5072026;28;20043;-68
2022/03/16 04:15:44;;;;;;;27.58;17.80;;;;;;;;;;5070459;28;20120;-68
2022/03/16 04:18:10;;;;;;;25.15;17.10;;;;;;;;;;5070707;28;21464;-68
2022/03/16 04:20:36;;;;;;;23.10;17.95;;;;;;;;;;5053685;28;20860;-68
2022/03/16 04:23:02;;;;;;;24.35;18.02;;;;;;;;;;5072415;28;20484;-68
2022/03/16 04:25:29;;;;;;;26.63;18.55;;;;;;;;;;5071436;28;20380;-68
2022/03/16 04:27:55;;;;;;;27.17;19.00;;;;;;;;;;5071306;28;20083;-68
2022/03/16 04:30:21;;;;;;;26.20;20.05;;;;;;;;;;5070094;28;20032;-68
2022/03/16 04:32:51;;;;;;;27.33;19.65;;;;;;;;;;5070014;28;20528;-68
2022/03/16 04:35:18;;;;;;;30.60;19.55;;;;;;;;;;5068196;28;20048;-68
2022/03/16 04:37:44;;;;;;;27.42;18.70;;;;;;;;;;5070928;28;20044;-68
2022/03/16 04:40:11;;;;;;;33.30;21.08;;;;;;;;;;5050588;28;20068;-68
2022/03/16 04:42:37;;;;;;;24.77;18.17;;;;;;;;;;5052270;28;20456;-68
2022/03/16 04:45:03;;;;;;;32.03;21.70;;;;;;;;;;5051818;28;21058;-68
2022/03/16 04:47:29;;;;;;;25.70;18.42;;;;;;;;;;5070472;28;20049;-68
2022/03/16 04:49:55;;;;;;;24.80;18.30;;;;;;;;;;5069171;28;20090;-68
2022/03/16 04:52:22;;;;;;;29.00;19.25;;;;;;;;;;5052298;28;20040;-68
2022/03/16 04:54:48;;;;;;;32.55;21.20;;;;;;;;;;5069964;28;20048;-68
2022/03/16 04:57:14;;;;;;;36.45;22.98;;;;;;;;;;5070807;28;20127;-68
2022/03/16 04:59:40;;;;;;;32.75;22.92;;;;;;;;;;5066514;28;20358;-68
2022/03/16 05:02:06;;;;;;;42.22;25.05;;;;;;;;;;5052935;28;20439;-68
2022/03/16 05:04:32;;;;;;;34.53;23.35;;;;;;;;;;5052199;28;20041;-68
2022/03/16 05:06:58;;;;;;;35.20;22.85;;;;;;;;;;5051312;28;20036;-68
2022/03/16 05:09:24;;;;;;;35.17;22.77;;;;;;;;;;5052224;28;20053;-68
2022/03/16 05:11:50;;;;;;;42.47;24.20;;;;;;;;;;5050521;28;20431;-68
2022/03/16 05:14:17;;;;;;;40.63;24.45;;;;;;;;;;5051637;28;20453;-68
2022/03/16 05:16:43;;;;;;;41.40;24.90;;;;;;;;;;5063688;28;20157;-68
2022/03/16 05:19:09;;;;;;;34.20;22.17;;;;;;;;;;5069131;28;20060;-68
2022/03/16 05:21:35;;;;;;;43.75;26.55;;;;;;;;;;5070551;28;20032;-68
2022/03/16 05:24:01;;;;;;;38.58;25.05;;;;;;;;;;5070116;28;20493;-68
2022/03/16 05:26:27;;;;;;;37.17;24.23;;;;;;;;;;5052179;28;20071;-68
2022/03/16 05:28:54;;;;;;;38.50;24.67;;;;;;;;;;5069417;28;20040;-68
2022/03/16 05:31:20;;;;;;;35.58;22.67;;;;;;;;;;5069999;28;20460;-68
2022/03/16 05:33:47;;;;;;;33.47;22.08;;;;;;;;;;5070612;28;20128;-68
2022/03/16 05:36:13;;;;;;;33.28;21.83;;;;;;;;;;5068833;28;20052;-68
2022/03/16 05:38:39;;;;;;;34.08;21.63;;;;;;;;;;5049778;28;20076;-69
2022/03/16 05:41:05;;;;;;;34.20;22.40;;;;;;;;;;5069474;28;20036;-69
2022/03/16 05:43:32;;;;;;;34.85;22.35;;;;;;;;;;5049036;28;20454;-68
2022/03/16 05:45:58;;;;;;;35.65;23.10;;;;;;;;;;5069275;28;20053;-68
2022/03/16 05:48:24;;;;;;;33.65;21.23;;;;;;;;;;5068460;28;20037;-68
2022/03/16 05:50:50;;;;;;;38.22;23.95;;;;;;;;;;5069806;28;20033;-68
2022/03/16 05:53:16;;;;;;;32.10;22.45;;;;;;;;;;5052261;28;20046;-68
2022/03/16 05:55:42;;;;;;;33.42;22.77;;;;;;;;;;5068671;28;20078;-68
2022/03/16 05:58:09;;;;;;;36.67;25.20;;;;;;;;;;5069451;28;20488;-68
2022/03/16 06:00:36;;;;;;;33.88;23.23;;;;;;;;;;5069083;28;20032;-68
2022/03/16 06:03:02;;;;;;;35.10;23.80;;;;;;;;;;5051067;28;20114;-68
2022/03/16 06:05:28;;;;;;;41.60;26.52;;;;;;;;;;5068488;28;20052;-68
2022/03/16 06:07:54;;;;;;;35.65;22.73;;;;;;;;;;5050691;28;20044;-68
2022/03/16 06:10:20;;;;;;;39.70;26.10;;;;;;;;;;5067434;28;20123;-68
2022/03/16 06:12:50;;;;;;;41.63;26.58;;;;;;;;;;5066428;28;20040;-68
2022/03/16 06:15:16;;;;;;;41.05;26.80;;;;;;;;;;5049223;28;20550;-68
2022/03/16 06:17:42;;;;;;;37.58;25.20;;;;;;;;;;5050530;28;20037;-68
2022/03/16 06:20:08;;;;;;;39.70;26.55;;;;;;;;;;5048672;28;20037;-68
2022/03/16 06:22:34;;;;;;;35.17;24.80;;;;;;;;;;5069153;28;20044;-68
2022/03/16 06:25:00;;;;;;;37.63;24.42;;;;;;;;;;5068700;28;20533;-68
2022/03/16 06:27:27;;;;;;;35.72;23.75;;;;;;;;;;5052483;28;20055;-68
2022/03/16 06:29:53;;;;;;;33.95;23.83;;;;;;;;;;5065750;28;20472;-68
2022/03/16 06:32:19;;;;;;;37.47;25.42;;;;;;;;;;5068945;28;20421;-68
2022/03/16 06:34:46;;;;;;;39.47;26.67;;;;;;;;;;5052040;28;20449;-68
2022/03/16 06:37:13;;;;;;;37.03;24.60;;;;;;;;;;5033671;28;20052;-69
2022/03/16 06:39:39;;;;;;;39.63;26.00;;;;;;;;;;5049067;28;20048;-68
2022/03/16 06:42:05;;;;;;;38.08;26.52;;;;;;;;;;5050232;28;20123;-68
2022/03/16 06:44:31;;;;;;;38.03;26.33;;;;;;;;;;5067479;28;20052;-68
2022/03/16 06:46:57;;;;;;;43.28;26.77;;;;;;;;;;5065072;28;20044;-69
2022/03/16 06:49:23;;;;;;;36.78;25.40;;;;;;;;;;5047010;28;20047;-69
2022/03/16 06:51:49;;;;;;;42.08;27.95;;;;;;;;;;5067387;28;20036;-69
2022/03/16 06:54:16;;;;;;;41.30;27.90;;;;;;;;;;5050195;28;20051;-68
2022/03/16 06:56:42;;;;;;;50.08;30.35;;;;;;;;;;5034307;28;20119;-69
2022/03/16 06:59:08;;;;;;;48.08;30.45;;;;;;;;;;5068947;28;20059;-69
2022/03/16 07:01:34;;;;;;;43.47;28.73;;;;;;;;;;5068110;28;20045;-69
2022/03/16 07:04:00;;;;;;;46.25;30.95;;;;;;;;;;5068231;28;20052;-70
2022/03/16 07:06:26;;;;;;;48.95;31.52;;;;;;;;;;5067462;28;20120;-69
2022/03/16 07:08:52;;;;;;;49.63;33.08;;;;;;;;;;5049086;28;20107;-69
2022/03/16 07:11:18;;;;;;;43.03;30.50;;;;;;;;;;5067114;28;20055;-68
2022/03/16 07:14:30;;;;;;;42.13;29.85;;;;;;;;;;5046848;28;20087;-69
2022/03/16 07:16:30;;;;;;;50.15;32.80;;;;;;;;;;5050519;28;20044;-68
2022/03/16 07:18:56;;;;;;;54.25;35.72;;;;;;;;;;5035460;28;20072;-69
2022/03/16 07:21:22;;;;;;;58.00;36.28;;;;;;;;;;5069007;28;20415;-69
2022/03/16 07:23:48;;;;;;;53.45;33.72;;;;;;;;;;5050919;28;20047;-68
2022/03/16 07:26:14;;;;;;;51.80;34.88;;;;;;;;;;5067553;28;20035;-68
2022/03/16 07:28:40;;;;;;;44.25;31.83;;;;;;;;;;5050488;28;20101;-69
2022/03/16 07:31:08;;;;;;;51.78;35.00;;;;;;;;;;5067869;28;20036;-69
2022/03/16 07:33:35;;;;;;;48.75;32.88;;;;;;;;;;5067604;28;20040;-69
2022/03/16 07:36:01;;;;;;;57.85;36.20;;;;;;;;;;5051148;28;20063;-69
2022/03/16 07:38:27;;;;;;;49.42;32.65;;;;;;;;;;5050275;28;20384;-68
2022/03/16 07:40:54;;;;;;;46.25;32.00;;;;;;;;;;5049227;28;20044;-69
2022/03/16 07:43:20;;;;;;;54.00;35.38;;;;;;;;;;5047941;28;20060;-69
2022/03/16 07:45:47;;;;;;;49.33;34.78;;;;;;;;;;5049426;28;20045;-69
2022/03/16 07:48:13;;;;;;;51.63;33.28;;;;;;;;;;5048070;28;20052;-69
2022/03/16 07:50:39;;;;;;;52.92;36.10;;;;;;;;;;5049159;28;20044;-69
2022/03/16 07:53:06;;;;;;;56.50;35.75;;;;;;;;;;5050295;28;20397;-69
2022/03/16 07:55:32;;;;;;;50.75;35.05;;;;;;;;;;5048590;28;20040;-68
2022/03/16 07:57:59;;;;;;;50.05;34.22;;;;;;;;;;5050032;28;20147;-68
2022/03/16 08:00:26;;;;;;;51.45;34.47;;;;;;;;;;5048422;28;20052;-68
2022/03/16 08:02:53;;;;;;;46.88;32.25;;;;;;;;;;5067533;28;20037;-69
2022/03/16 08:05:21;;;;;;;45.42;31.85;;;;;;;;;;5047841;28;20043;-69
2022/03/16 08:07:48;;;;;;;45.25;32.55;;;;;;;;;;5065428;28;20497;-69
2022/03/16 08:10:14;;;;;;;44.67;32.45;;;;;;;;;;5050214;28;20499;-68
2022/03/16 08:12:40;;;;;;;44.13;31.65;;;;;;;;;;5049031;28;20051;-69
2022/03/16 08:15:06;;;;;;;40.35;28.23;;;;;;;;;;5049069;28;20098;-69
2022/03/16 08:17:32;;;;;;;36.97;27.77;;;;;;;;;;5068117;28;20036;-69
2022/03/16 08:19:58;;;;;;;41.28;29.40;;;;;;;;;;5049070;28;20047;-69
2022/03/16 08:22:25;;;;;;;37.95;28.15;;;;;;;;;;5068670;28;20033;-69
2022/03/16 08:24:52;;;;;;;36.70;26.67;;;;;;;;;;5049897;28;20400;-69
2022/03/16 08:27:18;;;;;;;36.00;25.83;;;;;;;;;;5068008;28;20053;-69
2022/03/16 08:29:44;;;;;;;37.03;26.63;;;;;;;;;;5049726;28;20155;-69
2022/03/16 08:32:10;;;;;;;34.08;25.15;;;;;;;;;;5067484;28;20098;-69
2022/03/16 08:34:36;;;;;;;33.47;25.30;;;;;;;;;;5067459;28;20447;-69
2022/03/16 08:37:03;;;;;;;37.38;24.35;;;;;;;;;;5047967;28;20044;-69
2022/03/16 08:39:29;;;;;;;32.92;23.63;;;;;;;;;;5047708;28;20115;-69
2022/03/16 08:41:56;;;;;;;36.47;24.45;;;;;;;;;;5049075;28;20079;-69
2022/03/16 08:44:23;;;;;;;34.85;23.67;;;;;;;;;;5050304;28;20544;-69
2022/03/16 08:46:50;;;;;;;31.13;21.65;;;;;;;;;;5068008;28;20048;-69
2022/03/16 08:49:21;;;;;;;32.40;22.88;;;;;;;;;;5050050;28;20037;-69
2022/03/16 08:51:47;;;;;;;29.63;21.13;;;;;;;;;;5068272;28;20040;-69
2022/03/16 08:54:13;;;;;;;29.55;21.55;;;;;;;;;;5051527;28;20044;-69
2022/03/16 08:56:40;;;;;;;28.88;20.75;;;;;;;;;;5052472;28;20048;-69
2022/03/16 08:59:06;;;;;;;28.23;21.20;;;;;;;;;;5069881;28;20048;-70
2022/03/16 09:01:32;;;;;;;28.20;20.38;;;;;;;;;;5052965;28;20083;-69
2022/03/16 09:03:58;;;;;;;26.02;19.02;;;;;;;;;;5036234;28;20043;-69
2022/03/16 09:06:25;;;;;;;28.52;20.23;;;;;;;;;;5019452;28;20040;-69
2022/03/16 09:08:51;;;;;;;25.48;19.27;;;;;;;;;;5037279;28;20040;-69
2022/03/16 09:11:17;;;;;;;27.27;19.67;;;;;;;;;;5052499;28;20036;-69
2022/03/16 09:13:44;;;;;;;29.77;19.88;;;;;;;;;;5050596;28;20036;-69
2022/03/16 09:16:10;;;;;;;28.75;18.73;;;;;;;;;;5034720;28;20131;-69
2022/03/16 09:18:36;;;;;;;25.60;18.20;;;;;;;;;;5067559;28;20119;-69
2022/03/16 09:21:02;;;;;;;25.65;19.10;;;;;;;;;;5051900;28;20553;-69
2022/03/16 09:23:31;;;;;;;28.85;18.50;;;;;;;;;;5069477;28;20119;-69
2022/03/16 09:26:00;;;;;;;25.42;17.73;;;;;;;;;;5050938;28;20061;-69
2022/03/16 09:28:27;;;;;;;24.48;17.63;;;;;;;;;;5070119;28;20170;-69
2022/03/16 09:30:53;;;;;;;28.55;18.23;;;;;;;;;;5051333;28;20059;-69
2022/03/16 09:33:21;;;;;;;26.55;17.10;;;;;;;;;;5052170;28;20040;-69
2022/03/16 09:35:48;;;;;;;24.70;18.02;;;;;;;;;;5051571;28;20462;-70
2022/03/16 09:38:18;;;;;;;24.98;16.92;;;;;;;;;;5069922;28;20071;-69
2022/03/16 09:40:44;;;;;;;25.15;16.85;;;;;;;;;;5051229;28;20067;-69
2022/03/16 09:43:11;;;;;;;25.50;18.30;;;;;;;;;;5070294;28;20032;-69
2022/03/16 09:45:46;;;;;;;25.15;17.50;;;;;;;;;;5034572;28;20048;-69
2022/03/16 09:48:13;;;;;;;25.47;16.97;;;;;;;;;;5049960;28;20101;-69
2022/03/16 09:50:41;;;;;;;24.10;16.80;;;;;;;;;;5050258;28;20131;-69
2022/03/16 09:53:08;;;;;;;24.35;15.93;;;;;;;;;;5050800;28;20048;-69
2022/03/16 09:55:34;;;;;;;23.38;15.90;;;;;;;;;;5069219;28;20044;-69
2022/03/16 09:58:00;;;;;;;17.48;13.60;;;;;;;;;;5052015;28;20040;-69
2022/03/16 10:00:26;;;;;;;17.83;11.63;;;;;;;;;;5069418;28;20059;-69
2022/03/16 10:02:54;;;;;;;18.98;12.85;;;;;;;;;;5067319;28;20127;-69
2022/03/16 10:05:22;;;;;;;17.70;11.93;;;;;;;;;;5048990;28;20086;-69
2022/03/16 10:07:48;;;;;;;17.83;11.73;;;;;;;;;;5050441;28;20370;-69
2022/03/16 10:13:14;;;;;;;18.42;12.02;;;;;;;;;;5047952;28;20036;-69
2022/03/16 10:15:42;;;;;;;18.60;12.68;;;;;;;;;;5066931;28;20059;-69
2022/03/16 10:18:09;;;;;;;17.25;11.38;;;;;;;;;;5031532;28;20048;-69
2022/03/16 10:20:37;;;;;;;16.08;12.38;;;;;;;;;;5019327;28;20040;-69
2022/03/16 10:23:05;;;;;;;18.10;12.10;;;;;;;;;;5067949;28;20087;-70
2022/03/16 10:25:33;;;;;;;15.68;11.13;;;;;;;;;;5065958;28;20040;-70
2022/03/16 10:28:10;;;;;;;16.15;10.43;;;;;;;;;;5047763;28;20392;-70
2022/03/16 10:30:37;;;;;;;15.88;10.73;;;;;;;;;;5044515;28;20054;-70
2022/03/16 10:33:04;;;;;;;16.38;9.88;;;;;;;;;;5064431;28;20110;-69
2022/03/16 10:35:30;;;;;;;15.65;10.45;;;;;;;;;;5050416;28;20579;-70
2022/03/16 10:38:07;;;;;;;13.90;10.07;;;;;;;;;;5019198;28;20374;-70
2022/03/16 10:40:34;;;;;;;14.82;10.27;;;;;;;;;;5049464;28;20455;-70
2022/03/16 10:49:05;;;;;;;12.10;9.70;;;;;;;;;;5050372;28;20055;-70
2022/03/16 10:51:32;;;;;;;12.90;9.52;;;;;;;;;;5066970;28;20123;-70
2022/03/16 10:54:00;;;;;;;14.48;10.40;;;;;;;;;;5048588;28;20481;-70
2022/03/16 10:56:27;;;;;;;15.77;10.80;;;;;;;;;;5032866;28;20150;-70
2022/03/16 10:58:54;;;;;;;16.92;10.68;;;;;;;;;;5066002;28;20060;-70
2022/03/16 11:01:21;;;;;;;17.33;11.15;;;;;;;;;;5047699;28;20058;-70
2022/03/16 11:03:51;;;;;;;17.25;11.32;;;;;;;;;;5063629;28;20052;-71
2022/03/16 11:06:20;;;;;;;16.42;10.73;;;;;;;;;;5067125;28;20040;-70
2022/03/16 11:08:47;;;;;;;13.82;10.07;;;;;;;;;;5066156;28;20037;-71
2022/03/16 11:13:59;;;;;;;13.23;9.23;;;;;;;;;;5067419;28;20481;-70
2022/03/16 11:16:25;;;;;;;13.43;9.23;;;;;;;;;;5049702;28;20064;-70
2022/03/16 11:18:51;;;;;;;12.75;9.68;;;;;;;;;;5049235;28;20041;-70
2022/03/16 11:21:29;;;;;;;15.15;10.48;;;;;;;;;;5050552;28;20396;-71
2022/03/16 11:27:00;;;;;;;13.48;9.27;;;;;;;;;;5050108;28;20044;-71
2022/03/16 11:29:45;;;;;;;12.40;9.50;;;;;;;;;;5050259;28;20128;-70
2022/03/16 11:32:16;;;;;;;13.15;9.55;;;;;;;;;;5049703;28;20452;-71
2022/03/16 11:34:50;;;;;;;13.45;9.18;;;;;;;;;;5050572;28;20054;-71
2022/03/16 11:37:16;;;;;;;12.90;9.75;;;;;;;;;;5049901;28;20048;-71
2022/03/16 11:39:44;;;;;;;15.07;9.68;;;;;;;;;;5049467;28;20052;-71
2022/03/16 11:42:11;;;;;;;13.20;9.48;;;;;;;;;;5050855;28;20044;-70
2022/03/16 11:44:39;;;;;;;13.88;10.13;;;;;;;;;;5067184;28;20052;-70
2022/03/16 11:47:11;;;;;;;13.73;9.57;;;;;;;;;;5050011;28;20040;-70
2022/03/16 11:49:42;;;;;;;15.55;10.75;;;;;;;;;;5048237;28;20093;-70
2022/03/16 11:52:11;;;;;;;13.80;10.02;;;;;;;;;;5049207;28;20056;-70
2022/03/16 11:54:45;;;;;;;15.48;9.45;;;;;;;;;;5050005;28;20055;-73
2022/03/16 11:57:11;;;;;;;16.48;10.13;;;;;;;;;;5049218;28;20048;-69
2022/03/16 11:59:47;;;;;;;14.85;10.38;;;;;;;;;;5050578;28;20643;-69
2022/03/16 12:02:13;;;;;;;12.90;9.85;;;;;;;;;;5068460;28;20036;-69
2022/03/16 12:04:40;;;;;;;13.60;10.25;;;;;;;;;;5049575;28;20373;-63
2022/03/16 12:07:14;;;;;;;14.77;9.73;;;;;;;;;;5049229;28;20036;-64
2022/03/16 12:09:46;;;;;;;15.57;9.18;;;;;;;;;;5068991;28;20036;-69
2022/03/16 12:15:00;;;;;;;14.32;9.82;;;;;;;;;;5067288;28;20064;-70
2022/03/16 12:17:26;;;;;;;13.35;9.20;;;;;;;;;;5050699;28;20102;-70
2022/03/16 12:20:11;;;;;;;13.55;9.48;;;;;;;;;;5034850;28;20059;-70
2022/03/16 12:22:38;;;;;;;12.75;9.82;;;;;;;;;;5051878;28;20473;-69
2022/03/16 12:25:26;;;;;;;15.70;10.23;;;;;;;;;;5051279;28;20044;-70
2022/03/16 12:30:55;;;;;;;13.88;10.23;;;;;;;;;;5072676;28;20037;-70
2022/03/16 12:33:22;;;;;;;14.10;10.20;;;;;;;;;;5054309;28;20036;-70
2022/03/16 12:35:54;;;;;;;14.95;9.45;;;;;;;;;;5072364;28;20381;-69
2022/03/16 12:38:21;;;;;;;13.05;10.40;;;;;;;;;;5054684;28;20041;-70
2022/03/16 12:43:33;;;;;;;13.55;10.57;;;;;;;;;;5071908;28;20090;-70
2022/03/16 12:46:17;;;;;;;15.82;10.55;;;;;;;;;;5072844;28;20045;-70
2022/03/16 12:48:48;;;;;;;12.82;10.10;;;;;;;;;;5054449;28;20106;-70
2022/03/16 12:51:18;;;;;;;15.65;10.15;;;;;;;;;;5055247;28;20121;-70
2022/03/16 12:53:44;;;;;;;14.35;10.65;;;;;;;;;;5053720;28;20048;-70
2022/03/16 12:56:19;;;;;;;14.45;10.40;;;;;;;;;;5054856;28;20055;-70
2022/03/16 12:58:52;;;;;;;14.02;10.82;;;;;;;;;;5072324;28;20039;-69
2022/03/16 13:01:19;;;;;;;18.73;11.73;;;;;;;;;;5054580;28;20045;-69
2022/03/16 13:03:46;;;;;;;16.95;10.88;;;;;;;;;;5053023;28;20040;-69
2022/03/16 13:06:13;;;;;;;14.23;10.70;;;;;;;;;;5072316;28;20048;-69
2022/03/16 13:08:42;;;;;;;13.73;9.98;;;;;;;;;;5072673;28;20043;-69
2022/03/16 13:11:14;;;;;;;14.05;10.75;;;;;;;;;;5071361;28;20122;-68
2022/03/16 13:13:44;;;;;;;15.45;10.52;;;;;;;;;;5071883;28;20059;-69
2022/03/16 13:16:10;;;;;;;15.13;11.32;;;;;;;;;;5054056;28;20037;-69
2022/03/16 13:18:36;;;;;;;16.02;10.38;;;;;;;;;;5072420;28;20043;-69
2022/03/16 13:21:22;;;;;;;14.02;10.07;;;;;;;;;;5071779;28;20044;-70
2022/03/16 13:23:48;;;;;;;16.13;10.93;;;;;;;;;;5071357;28;20037;-70
2022/03/16 13:26:15;;;;;;;17.83;11.75;;;;;;;;;;5072330;28;20271;-70
2022/03/16 13:28:43;;;;;;;16.08;10.50;;;;;;;;;;5053810;28;20522;-70
2022/03/16 13:31:09;;;;;;;13.45;10.32;;;;;;;;;;5071723;28;20400;-70
2022/03/16 13:33:35;;;;;;;13.60;10.32;;;;;;;;;;5071426;28;20044;-69
2022/03/16 13:36:13;;;;;;;15.27;10.63;;;;;;;;;;5071851;28;20119;-69
2022/03/16 13:38:39;;;;;;;15.73;10.43;;;;;;;;;;5053841;28;20067;-69
2022/03/16 13:41:15;;;;;;;14.07;10.10;;;;;;;;;;5071197;28;20049;-69
2022/03/16 13:43:41;;;;;;;13.57;10.20;;;;;;;;;;5053035;28;20537;-69
2022/03/16 13:46:13;;;;;;;14.63;10.32;;;;;;;;;;5071584;28;20040;-69
2022/03/16 13:48:40;;;;;;;15.45;10.80;;;;;;;;;;5053075;28;20182;-69
2022/03/16 13:51:07;;;;;;;15.75;10.07;;;;;;;;;;5053120;28;20381;-70
2022/03/16 13:53:47;;;;;;;13.60;10.57;;;;;;;;;;5052750;28;20218;-69
2022/03/16 13:56:21;;;;;;;12.88;10.10;;;;;;;;;;5036351;28;20040;-70
2022/03/16 13:58:49;;;;;;;15.88;10.90;;;;;;;;;;5052823;28;20076;-69
2022/03/16 14:01:22;;;;;;;16.27;10.65;;;;;;;;;;5071431;28;20040;-69
2022/03/16 14:03:48;;;;;;;15.90;11.13;;;;;;;;;;5070722;28;20443;-69
2022/03/16 14:06:15;;;;;;;13.60;10.77;;;;;;;;;;5052949;28;20696;-69
2022/03/16 14:08:41;;;;;;;15.88;11.52;;;;;;;;;;5053062;28;20040;-69
2022/03/16 14:11:08;;;;;;;15.32;11.35;;;;;;;;;;5053098;28;20033;-69
2022/03/16 14:13:38;;;;;;;14.98;11.20;;;;;;;;;;5052219;28;20090;-70
2022/03/16 14:16:14;;;;;;;14.75;10.75;;;;;;;;;;5052610;28;20495;-71
2022/03/16 14:18:40;;;;;;;;;;;;;;;;;;5053617;28;20097;-69
2022/03/16 14:21:08;;;;;;;13.05;9.57;;;;;;;;;;5070890;28;19917;-69
2022/03/16 14:23:38;;;;;;;13.68;10.73;;;;;;;;;;5069799;28;20063;-69
2022/03/16 14:26:04;;;;;;;14.30;10.77;;;;;;;;;;5052014;28;20044;-69
2022/03/16 14:28:31;;;;;;;16.65;11.75;;;;;;;;;;5070814;28;20044;-70
2022/03/16 14:30:57;;;;;;;14.98;11.10;;;;;;;;;;5069956;28;20033;-70
2022/03/16 14:33:25;;;;;;;13.05;11.02;;;;;;;;;;5070309;28;20070;-69
2022/03/16 14:35:59;;;;;;;17.38;11.93;;;;;;;;;;5051702;28;20115;-69
2022/03/16 14:38:26;;;;;;;16.67;11.20;;;;;;;;;;5070033;28;20048;-70
2022/03/16 14:40:55;;;;;;;14.63;11.80;;;;;;;;;;5069880;28;20044;-69
2022/03/16 14:43:21;;;;;;;15.27;11.48;;;;;;;;;;5052209;28;20040;-69